sensor_id;sensor_type;location;lat;lon;timestamp;P1;durP1;ratioP1;P2;durP2;ratioP2
73428;SDS011;61643;49.564;17.412;2023-06-24T00:00:09;2.15;;;1.13;;
73428;SDS011;61643;49.564;17.412;2023-06-24T00:02:37;0.85;;;0.82;;
73428;SDS011;61643;49.564;17.412;2023-06-24T00:05:04;1.20;;;1.10;;
73428;SDS011;61643;49.564;17.412;2023-06-24T00:07:32;0.95;;;0.90;;
73428;SDS011;61643;49.564;17.412;2023-06-24T00:10:01;0.80;;;0.80;;
73428;SDS011;61643;49.564;17.412;2023-06-24T00:12:29;1.50;;;0.90;;
73428;SDS011;61643;49.564;17.412;2023-06-24T00:14:55;1.08;;;0.98;;
73428;SDS011;61643;49.564;17.412;2023-06-24T00:17:21;1.42;;;1.05;;
73428;SDS011;61643;49.564;17.412;2023-06-24T00:19:47;0.90;;;0.90;;
73428;SDS011;61643;49.564;17.412;2023-06-24T00:22:13;1.10;;;1.00;;
73428;SDS011;61643;49.564;17.412;2023-06-24T00:24:38;0.95;;;0.90;;
73428;SDS011;61643;49.564;17.412;2023-06-24T00:27:05;1.10;;;0.90;;
73428;SDS011;61643;49.564;17.412;2023-06-24T00:29:31;1.58;;;0.90;;
73428;SDS011;61643;49.564;17.412;2023-06-24T00:31:57;1.30;;;0.80;;
73428;SDS011;61643;49.564;17.412;2023-06-24T00:34:23;2.10;;;0.77;;
73428;SDS011;61643;49.564;17.412;2023-06-24T00:36:49;0.80;;;0.80;;
73428;SDS011;61643;49.564;17.412;2023-06-24T00:39:15;1.05;;;0.95;;
73428;SDS011;61643;49.564;17.412;2023-06-24T00:41:41;1.42;;;0.90;;
73428;SDS011;61643;49.564;17.412;2023-06-24T00:44:08;0.80;;;0.80;;
73428;SDS011;61643;49.564;17.412;2023-06-24T00:46:34;2.42;;;0.90;;
73428;SDS011;61643;49.564;17.412;2023-06-24T00:49:01;4.60;;;1.10;;
73428;SDS011;61643;49.564;17.412;2023-06-24T00:51:28;1.30;;;1.13;;
73428;SDS011;61643;49.564;17.412;2023-06-24T00:56:22;0.90;;;0.90;;
73428;SDS011;61643;49.564;17.412;2023-06-24T00:58:53;1.95;;;0.95;;
73428;SDS011;61643;49.564;17.412;2023-06-24T01:01:20;1.65;;;0.95;;
73428;SDS011;61643;49.564;17.412;2023-06-24T01:03:46;0.85;;;0.85;;
73428;SDS011;61643;49.564;17.412;2023-06-24T01:06:13;1.52;;;1.00;;
73428;SDS011;61643;49.564;17.412;2023-06-24T01:08:39;1.23;;;0.93;;
73428;SDS011;61643;49.564;17.412;2023-06-24T01:11:06;1.00;;;1.00;;
73428;SDS011;61643;49.564;17.412;2023-06-24T01:13:32;0.90;;;0.90;;
73428;SDS011;61643;49.564;17.412;2023-06-24T01:15:59;0.90;;;0.90;;
73428;SDS011;61643;49.564;17.412;2023-06-24T01:18:40;1.50;;;0.95;;
73428;SDS011;61643;49.564;17.412;2023-06-24T01:24:04;0.90;;;0.90;;
73428;SDS011;61643;49.564;17.412;2023-06-24T01:35:04;1.85;;;1.20;;
73428;SDS011;61643;49.564;17.412;2023-06-24T01:37:35;1.17;;;0.90;;
73428;SDS011;61643;49.564;17.412;2023-06-24T01:42:42;1.45;;;1.15;;
73428;SDS011;61643;49.564;17.412;2023-06-24T01:45:12;2.25;;;1.08;;
73428;SDS011;61643;49.564;17.412;2023-06-24T01:47:40;2.15;;;1.25;;
73428;SDS011;61643;49.564;17.412;2023-06-24T01:50:10;1.20;;;1.10;;
73428;SDS011;61643;49.564;17.412;2023-06-24T01:55:06;1.10;;;1.00;;
73428;SDS011;61643;49.564;17.412;2023-06-24T01:57:35;0.90;;;0.90;;
73428;SDS011;61643;49.564;17.412;2023-06-24T02:02:31;1.60;;;0.90;;
73428;SDS011;61643;49.564;17.412;2023-06-24T02:04:58;0.80;;;0.80;;
73428;SDS011;61643;49.564;17.412;2023-06-24T02:07:27;2.15;;;0.65;;
73428;SDS011;61643;49.564;17.412;2023-06-24T02:09:55;0.80;;;0.80;;
73428;SDS011;61643;49.564;17.412;2023-06-24T02:12:23;1.15;;;0.60;;
73428;SDS011;61643;49.564;17.412;2023-06-24T02:14:51;0.70;;;0.70;;
73428;SDS011;61643;49.564;17.412;2023-06-24T02:17:19;1.05;;;0.80;;
73428;SDS011;61643;49.564;17.412;2023-06-24T02:19:47;1.00;;;0.80;;
73428;SDS011;61643;49.564;17.412;2023-06-24T02:22:14;1.85;;;0.68;;
73428;SDS011;61643;49.564;17.412;2023-06-24T02:27:07;0.70;;;0.70;;
73428;SDS011;61643;49.564;17.412;2023-06-24T02:29:35;0.50;;;0.50;;
73428;SDS011;61643;49.564;17.412;2023-06-24T02:32:02;1.85;;;0.70;;
73428;SDS011;61643;49.564;17.412;2023-06-24T02:34:29;0.65;;;0.65;;
73428;SDS011;61643;49.564;17.412;2023-06-24T02:36:55;2.60;;;0.70;;
73428;SDS011;61643;49.564;17.412;2023-06-24T02:39:21;0.80;;;0.80;;
73428;SDS011;61643;49.564;17.412;2023-06-24T02:41:48;0.60;;;0.60;;
73428;SDS011;61643;49.564;17.412;2023-06-24T02:44:15;0.50;;;0.50;;
73428;SDS011;61643;49.564;17.412;2023-06-24T02:46:44;0.77;;;0.77;;
73428;SDS011;61643;49.564;17.412;2023-06-24T02:49:12;0.90;;;0.90;;
73428;SDS011;61643;49.564;17.412;2023-06-24T02:51:40;1.48;;;0.85;;
73428;SDS011;61643;49.564;17.412;2023-06-24T02:54:07;1.67;;;0.70;;
73428;SDS011;61643;49.564;17.412;2023-06-24T02:56:33;0.80;;;0.80;;
73428;SDS011;61643;49.564;17.412;2023-06-24T02:59:00;0.70;;;0.70;;
73428;SDS011;61643;49.564;17.412;2023-06-24T03:01:26;0.90;;;0.90;;
73428;SDS011;61643;49.564;17.412;2023-06-24T03:03:53;1.45;;;0.93;;
73428;SDS011;61643;49.564;17.412;2023-06-24T03:06:21;1.67;;;1.10;;
73428;SDS011;61643;49.564;17.412;2023-06-24T03:08:48;1.13;;;1.02;;
73428;SDS011;61643;49.564;17.412;2023-06-24T03:11:15;2.80;;;1.10;;
73428;SDS011;61643;49.564;17.412;2023-06-24T03:13:42;1.40;;;1.30;;
73428;SDS011;61643;49.564;17.412;2023-06-24T03:16:08;2.78;;;1.00;;
73428;SDS011;61643;49.564;17.412;2023-06-24T03:18:41;1.20;;;1.10;;
73428;SDS011;61643;49.564;17.412;2023-06-24T03:21:07;1.92;;;1.42;;
73428;SDS011;61643;49.564;17.412;2023-06-24T03:23:34;1.85;;;1.20;;
73428;SDS011;61643;49.564;17.412;2023-06-24T03:26:00;2.15;;;1.60;;
73428;SDS011;61643;49.564;17.412;2023-06-24T03:28:31;1.27;;;1.17;;
73428;SDS011;61643;49.564;17.412;2023-06-24T03:30:57;1.30;;;1.20;;
73428;SDS011;61643;49.564;17.412;2023-06-24T03:33:23;1.52;;;1.27;;
73428;SDS011;61643;49.564;17.412;2023-06-24T03:35:50;1.52;;;1.40;;
73428;SDS011;61643;49.564;17.412;2023-06-24T03:38:16;1.42;;;1.33;;
73428;SDS011;61643;49.564;17.412;2023-06-24T03:40:42;1.65;;;1.50;;
73428;SDS011;61643;49.564;17.412;2023-06-24T03:43:09;1.50;;;1.40;;
73428;SDS011;61643;49.564;17.412;2023-06-24T03:45:35;2.33;;;1.70;;
73428;SDS011;61643;49.564;17.412;2023-06-24T03:48:01;1.92;;;1.83;;
73428;SDS011;61643;49.564;17.412;2023-06-24T03:50:27;2.33;;;1.73;;
73428;SDS011;61643;49.564;17.412;2023-06-24T03:52:53;2.05;;;1.85;;
73428;SDS011;61643;49.564;17.412;2023-06-24T03:55:19;1.98;;;1.88;;
73428;SDS011;61643;49.564;17.412;2023-06-24T03:57:45;3.13;;;2.00;;
73428;SDS011;61643;49.564;17.412;2023-06-24T04:00:11;2.33;;;2.13;;
73428;SDS011;61643;49.564;17.412;2023-06-24T04:02:46;2.53;;;2.13;;
73428;SDS011;61643;49.564;17.412;2023-06-24T04:05:12;1.92;;;1.83;;
73428;SDS011;61643;49.564;17.412;2023-06-24T04:07:38;2.40;;;2.20;;
73428;SDS011;61643;49.564;17.412;2023-06-24T04:10:05;2.90;;;2.10;;
73428;SDS011;61643;49.564;17.412;2023-06-24T04:12:35;2.30;;;2.10;;
73428;SDS011;61643;49.564;17.412;2023-06-24T04:15:02;2.60;;;2.35;;
73428;SDS011;61643;49.564;17.412;2023-06-24T04:17:29;2.50;;;2.30;;
73428;SDS011;61643;49.564;17.412;2023-06-24T04:19:55;3.55;;;2.40;;
73428;SDS011;61643;49.564;17.412;2023-06-24T04:22:21;2.50;;;2.13;;
73428;SDS011;61643;49.564;17.412;2023-06-24T04:24:47;3.20;;;2.58;;
73428;SDS011;61643;49.564;17.412;2023-06-24T04:27:13;2.85;;;2.53;;
73428;SDS011;61643;49.564;17.412;2023-06-24T04:29:39;3.58;;;2.80;;
73428;SDS011;61643;49.564;17.412;2023-06-24T04:32:05;3.72;;;3.22;;
73428;SDS011;61643;49.564;17.412;2023-06-24T04:34:32;3.75;;;2.92;;
73428;SDS011;61643;49.564;17.412;2023-06-24T04:36:58;3.42;;;3.00;;
73428;SDS011;61643;49.564;17.412;2023-06-24T04:39:24;3.70;;;3.15;;
73428;SDS011;61643;49.564;17.412;2023-06-24T04:41:50;4.05;;;3.10;;
73428;SDS011;61643;49.564;17.412;2023-06-24T04:44:16;3.63;;;3.30;;
73428;SDS011;61643;49.564;17.412;2023-06-24T04:46:42;3.72;;;3.13;;
73428;SDS011;61643;49.564;17.412;2023-06-24T04:49:08;4.15;;;3.58;;
73428;SDS011;61643;49.564;17.412;2023-06-24T04:51:34;3.88;;;3.47;;
73428;SDS011;61643;49.564;17.412;2023-06-24T04:54:01;4.10;;;3.65;;
73428;SDS011;61643;49.564;17.412;2023-06-24T04:56:27;4.00;;;3.35;;
73428;SDS011;61643;49.564;17.412;2023-06-24T04:58:53;4.38;;;3.35;;
73428;SDS011;61643;49.564;17.412;2023-06-24T05:01:19;3.35;;;3.05;;
73428;SDS011;61643;49.564;17.412;2023-06-24T05:03:46;3.85;;;3.45;;
73428;SDS011;61643;49.564;17.412;2023-06-24T05:06:12;3.67;;;3.22;;
73428;SDS011;61643;49.564;17.412;2023-06-24T05:08:38;4.10;;;3.40;;
73428;SDS011;61643;49.564;17.412;2023-06-24T05:11:04;4.18;;;3.40;;
73428;SDS011;61643;49.564;17.412;2023-06-24T05:13:31;4.40;;;3.20;;
73428;SDS011;61643;49.564;17.412;2023-06-24T05:15:57;3.67;;;3.38;;
73428;SDS011;61643;49.564;17.412;2023-06-24T05:18:22;4.20;;;3.30;;
73428;SDS011;61643;49.564;17.412;2023-06-24T05:20:48;4.00;;;3.60;;
73428;SDS011;61643;49.564;17.412;2023-06-24T05:23:15;4.03;;;3.22;;
73428;SDS011;61643;49.564;17.412;2023-06-24T05:25:41;3.70;;;3.40;;
73428;SDS011;61643;49.564;17.412;2023-06-24T05:28:07;3.38;;;3.08;;
73428;SDS011;61643;49.564;17.412;2023-06-24T05:30:33;3.17;;;2.70;;
73428;SDS011;61643;49.564;17.412;2023-06-24T05:32:59;3.55;;;3.10;;
73428;SDS011;61643;49.564;17.412;2023-06-24T05:35:25;3.50;;;3.20;;
73428;SDS011;61643;49.564;17.412;2023-06-24T05:37:50;4.43;;;3.28;;
73428;SDS011;61643;49.564;17.412;2023-06-24T05:40:16;2.92;;;2.70;;
73428;SDS011;61643;49.564;17.412;2023-06-24T05:42:42;3.25;;;2.95;;
73428;SDS011;61643;49.564;17.412;2023-06-24T05:45:08;6.60;;;3.03;;
73428;SDS011;61643;49.564;17.412;2023-06-24T05:47:35;2.92;;;2.67;;
73428;SDS011;61643;49.564;17.412;2023-06-24T05:50:02;3.03;;;2.50;;
73428;SDS011;61643;49.564;17.412;2023-06-24T05:52:28;3.10;;;2.80;;
73428;SDS011;61643;49.564;17.412;2023-06-24T05:54:54;3.30;;;3.00;;
73428;SDS011;61643;49.564;17.412;2023-06-24T05:57:20;3.08;;;2.70;;
73428;SDS011;61643;49.564;17.412;2023-06-24T05:59:46;3.47;;;2.97;;
73428;SDS011;61643;49.564;17.412;2023-06-24T06:02:12;2.95;;;2.67;;
73428;SDS011;61643;49.564;17.412;2023-06-24T06:04:38;3.38;;;3.00;;
73428;SDS011;61643;49.564;17.412;2023-06-24T06:07:04;2.95;;;2.75;;
73428;SDS011;61643;49.564;17.412;2023-06-24T06:09:30;3.00;;;2.70;;
73428;SDS011;61643;49.564;17.412;2023-06-24T06:11:56;3.33;;;3.03;;
73428;SDS011;61643;49.564;17.412;2023-06-24T06:14:22;3.05;;;2.60;;
73428;SDS011;61643;49.564;17.412;2023-06-24T06:16:48;3.22;;;2.75;;
73428;SDS011;61643;49.564;17.412;2023-06-24T06:19:14;2.88;;;2.58;;
73428;SDS011;61643;49.564;17.412;2023-06-24T06:21:40;4.07;;;2.90;;
73428;SDS011;61643;49.564;17.412;2023-06-24T06:24:06;2.85;;;2.50;;
73428;SDS011;61643;49.564;17.412;2023-06-24T06:26:32;2.85;;;2.60;;
73428;SDS011;61643;49.564;17.412;2023-06-24T06:28:58;2.60;;;2.40;;
73428;SDS011;61643;49.564;17.412;2023-06-24T06:31:24;3.22;;;2.10;;
73428;SDS011;61643;49.564;17.412;2023-06-24T06:33:51;3.35;;;1.90;;
73428;SDS011;61643;49.564;17.412;2023-06-24T06:36:17;3.25;;;1.73;;
73428;SDS011;61643;49.564;17.412;2023-06-24T06:38:43;1.40;;;1.30;;
73428;SDS011;61643;49.564;17.412;2023-06-24T06:41:09;1.27;;;1.17;;
73428;SDS011;61643;49.564;17.412;2023-06-24T06:43:35;1.10;;;1.10;;
73428;SDS011;61643;49.564;17.412;2023-06-24T06:46:01;1.80;;;1.00;;
73428;SDS011;61643;49.564;17.412;2023-06-24T06:48:27;0.73;;;0.70;;
73428;SDS011;61643;49.564;17.412;2023-06-24T06:50:53;1.67;;;0.95;;
73428;SDS011;61643;49.564;17.412;2023-06-24T06:53:19;2.50;;;0.60;;
73428;SDS011;61643;49.564;17.412;2023-06-24T06:55:45;0.40;;;0.30;;
73428;SDS011;61643;49.564;17.412;2023-06-24T06:58:11;0.20;;;0.20;;
73428;SDS011;61643;49.564;17.412;2023-06-24T07:00:37;0.10;;;0.10;;
73428;SDS011;61643;49.564;17.412;2023-06-24T07:03:03;0.20;;;0.20;;
73428;SDS011;61643;49.564;17.412;2023-06-24T07:05:29;0.20;;;0.20;;
73428;SDS011;61643;49.564;17.412;2023-06-24T07:07:54;0.60;;;0.25;;
73428;SDS011;61643;49.564;17.412;2023-06-24T07:10:20;0.50;;;0.20;;
73428;SDS011;61643;49.564;17.412;2023-06-24T07:12:46;0.15;;;0.15;;
73428;SDS011;61643;49.564;17.412;2023-06-24T07:15:12;1.23;;;0.50;;
73428;SDS011;61643;49.564;17.412;2023-06-24T07:17:39;0.30;;;0.20;;
73428;SDS011;61643;49.564;17.412;2023-06-24T07:20:05;0.25;;;0.15;;
73428;SDS011;61643;49.564;17.412;2023-06-24T07:22:32;0.28;;;0.28;;
73428;SDS011;61643;49.564;17.412;2023-06-24T07:24:58;1.63;;;0.50;;
73428;SDS011;61643;49.564;17.412;2023-06-24T07:27:24;0.40;;;0.40;;
73428;SDS011;61643;49.564;17.412;2023-06-24T07:29:49;2.13;;;0.63;;
73428;SDS011;61643;49.564;17.412;2023-06-24T07:32:15;0.38;;;0.30;;
73428;SDS011;61643;49.564;17.412;2023-06-24T07:34:41;0.45;;;0.30;;
73428;SDS011;61643;49.564;17.412;2023-06-24T07:37:07;0.20;;;0.20;;
73428;SDS011;61643;49.564;17.412;2023-06-24T07:39:33;0.90;;;0.22;;
73428;SDS011;61643;49.564;17.412;2023-06-24T07:41:59;0.20;;;0.20;;
73428;SDS011;61643;49.564;17.412;2023-06-24T07:44:25;0.20;;;0.20;;
73428;SDS011;61643;49.564;17.412;2023-06-24T07:46:51;0.30;;;0.30;;
73428;SDS011;61643;49.564;17.412;2023-06-24T07:49:18;0.20;;;0.20;;
73428;SDS011;61643;49.564;17.412;2023-06-24T07:51:44;0.30;;;0.30;;
73428;SDS011;61643;49.564;17.412;2023-06-24T07:54:11;0.25;;;0.20;;
73428;SDS011;61643;49.564;17.412;2023-06-24T07:56:37;0.30;;;0.30;;
73428;SDS011;61643;49.564;17.412;2023-06-24T07:59:03;1.80;;;0.30;;
73428;SDS011;61643;49.564;17.412;2023-06-24T08:01:29;0.10;;;0.10;;
73428;SDS011;61643;49.564;17.412;2023-06-24T08:03:55;1.02;;;0.30;;
73428;SDS011;61643;49.564;17.412;2023-06-24T08:06:21;0.52;;;0.50;;
73428;SDS011;61643;49.564;17.412;2023-06-24T08:08:47;0.45;;;0.30;;
73428;SDS011;61643;49.564;17.412;2023-06-24T08:11:13;0.45;;;0.32;;
73428;SDS011;61643;49.564;17.412;2023-06-24T08:13:39;0.28;;;0.28;;
73428;SDS011;61643;49.564;17.412;2023-06-24T08:16:05;1.08;;;0.40;;
73428;SDS011;61643;49.564;17.412;2023-06-24T08:18:31;1.70;;;0.32;;
73428;SDS011;61643;49.564;17.412;2023-06-24T08:20:58;0.30;;;0.30;;
73428;SDS011;61643;49.564;17.412;2023-06-24T08:23:24;0.40;;;0.40;;
73428;SDS011;61643;49.564;17.412;2023-06-24T08:25:50;0.30;;;0.30;;
73428;SDS011;61643;49.564;17.412;2023-06-24T08:28:16;0.55;;;0.43;;
73428;SDS011;61643;49.564;17.412;2023-06-24T08:30:42;0.30;;;0.30;;
73428;SDS011;61643;49.564;17.412;2023-06-24T08:33:08;0.30;;;0.30;;
73428;SDS011;61643;49.564;17.412;2023-06-24T08:35:34;0.40;;;0.40;;
73428;SDS011;61643;49.564;17.412;2023-06-24T08:38:00;0.32;;;0.32;;
73428;SDS011;61643;49.564;17.412;2023-06-24T08:40:27;1.20;;;0.40;;
73428;SDS011;61643;49.564;17.412;2023-06-24T08:42:53;0.60;;;0.60;;
73428;SDS011;61643;49.564;17.412;2023-06-24T08:45:20;0.50;;;0.50;;
73428;SDS011;61643;49.564;17.412;2023-06-24T08:47:47;0.82;;;0.50;;
73428;SDS011;61643;49.564;17.412;2023-06-24T08:50:15;0.50;;;0.50;;
73428;SDS011;61643;49.564;17.412;2023-06-24T08:52:45;0.50;;;0.50;;
73428;SDS011;61643;49.564;17.412;2023-06-24T08:55:16;0.80;;;0.43;;
73428;SDS011;61643;49.564;17.412;2023-06-24T08:57:43;1.02;;;0.50;;
73428;SDS011;61643;49.564;17.412;2023-06-24T09:00:09;0.50;;;0.50;;
73428;SDS011;61643;49.564;17.412;2023-06-24T09:02:37;0.40;;;0.40;;
73428;SDS011;61643;49.564;17.412;2023-06-24T09:05:04;0.60;;;0.60;;
73428;SDS011;61643;49.564;17.412;2023-06-24T09:07:31;0.40;;;0.40;;
73428;SDS011;61643;49.564;17.412;2023-06-24T09:09:57;1.13;;;0.60;;
73428;SDS011;61643;49.564;17.412;2023-06-24T09:12:24;1.67;;;0.60;;
73428;SDS011;61643;49.564;17.412;2023-06-24T09:14:51;1.00;;;0.80;;
73428;SDS011;61643;49.564;17.412;2023-06-24T09:17:17;1.92;;;1.38;;
73428;SDS011;61643;49.564;17.412;2023-06-24T09:19:48;0.70;;;0.60;;
73428;SDS011;61643;49.564;17.412;2023-06-24T09:22:14;1.00;;;0.70;;
73428;SDS011;61643;49.564;17.412;2023-06-24T09:24:44;0.75;;;0.75;;
73428;SDS011;61643;49.564;17.412;2023-06-24T09:27:16;1.00;;;0.85;;
73428;SDS011;61643;49.564;17.412;2023-06-24T09:29:47;1.67;;;0.90;;
73428;SDS011;61643;49.564;17.412;2023-06-24T09:32:14;0.80;;;0.80;;
73428;SDS011;61643;49.564;17.412;2023-06-24T09:34:40;0.70;;;0.70;;
73428;SDS011;61643;49.564;17.412;2023-06-24T09:37:06;0.93;;;0.65;;
73428;SDS011;61643;49.564;17.412;2023-06-24T09:39:35;0.90;;;0.70;;
73428;SDS011;61643;49.564;17.412;2023-06-24T09:42:03;0.93;;;0.60;;
73428;SDS011;61643;49.564;17.412;2023-06-24T09:44:31;3.83;;;0.80;;
73428;SDS011;61643;49.564;17.412;2023-06-24T09:46:57;0.82;;;0.65;;
73428;SDS011;61643;49.564;17.412;2023-06-24T09:49:23;2.30;;;0.98;;
73428;SDS011;61643;49.564;17.412;2023-06-24T09:51:55;1.00;;;0.90;;
73428;SDS011;61643;49.564;17.412;2023-06-24T09:54:24;1.90;;;1.00;;
73428;SDS011;61643;49.564;17.412;2023-06-24T09:56:52;1.40;;;1.10;;
73428;SDS011;61643;49.564;17.412;2023-06-24T09:59:20;1.15;;;1.00;;
73428;SDS011;61643;49.564;17.412;2023-06-24T10:01:52;0.85;;;0.85;;
73428;SDS011;61643;49.564;17.412;2023-06-24T10:04:20;0.85;;;0.85;;
73428;SDS011;61643;49.564;17.412;2023-06-24T10:06:49;1.30;;;1.10;;
73428;SDS011;61643;49.564;17.412;2023-06-24T10:09:15;1.00;;;0.90;;
73428;SDS011;61643;49.564;17.412;2023-06-24T10:11:46;2.05;;;1.17;;
73428;SDS011;61643;49.564;17.412;2023-06-24T10:14:16;1.85;;;1.00;;
73428;SDS011;61643;49.564;17.412;2023-06-24T10:16:44;2.17;;;1.20;;
73428;SDS011;61643;49.564;17.412;2023-06-24T10:19:10;1.92;;;1.02;;
73428;SDS011;61643;49.564;17.412;2023-06-24T10:21:52;1.02;;;0.82;;
73428;SDS011;61643;49.564;17.412;2023-06-24T10:24:28;1.00;;;0.90;;
73428;SDS011;61643;49.564;17.412;2023-06-24T10:27:00;2.28;;;1.00;;
73428;SDS011;61643;49.564;17.412;2023-06-24T10:37:18;2.00;;;1.23;;
73428;SDS011;61643;49.564;17.412;2023-06-24T10:42:43;1.85;;;0.90;;
73428;SDS011;61643;49.564;17.412;2023-06-24T10:47:40;2.15;;;0.80;;
73428;SDS011;61643;49.564;17.412;2023-06-24T10:50:08;1.33;;;0.80;;
73428;SDS011;61643;49.564;17.412;2023-06-24T10:52:38;0.65;;;0.65;;
73428;SDS011;61643;49.564;17.412;2023-06-24T10:55:05;1.25;;;0.80;;
73428;SDS011;61643;49.564;17.412;2023-06-24T10:57:32;1.08;;;0.77;;
73428;SDS011;61643;49.564;17.412;2023-06-24T10:59:59;1.83;;;0.98;;
73428;SDS011;61643;49.564;17.412;2023-06-24T11:02:27;2.75;;;1.08;;
73428;SDS011;61643;49.564;17.412;2023-06-24T11:04:57;1.33;;;1.00;;
73428;SDS011;61643;49.564;17.412;2023-06-24T11:07:28;2.60;;;1.25;;
73428;SDS011;61643;49.564;17.412;2023-06-24T11:09:57;2.10;;;1.35;;
73428;SDS011;61643;49.564;17.412;2023-06-24T11:12:25;2.50;;;1.35;;
73428;SDS011;61643;49.564;17.412;2023-06-24T11:17:25;1.90;;;1.50;;
73428;SDS011;61643;49.564;17.412;2023-06-24T11:19:55;1.88;;;1.48;;
73428;SDS011;61643;49.564;17.412;2023-06-24T11:22:22;0.98;;;0.90;;
73428;SDS011;61643;49.564;17.412;2023-06-24T11:24:49;2.08;;;0.57;;
73428;SDS011;61643;49.564;17.412;2023-06-24T11:27:15;3.28;;;0.60;;
73428;SDS011;61643;49.564;17.412;2023-06-24T11:29:41;1.63;;;0.98;;
73428;SDS011;61643;49.564;17.412;2023-06-24T11:32:08;1.30;;;0.70;;
73428;SDS011;61643;49.564;17.412;2023-06-24T11:34:35;1.73;;;0.93;;
73428;SDS011;61643;49.564;17.412;2023-06-24T11:37:09;1.20;;;1.10;;
73428;SDS011;61643;49.564;17.412;2023-06-24T11:39:39;2.15;;;1.02;;
73428;SDS011;61643;49.564;17.412;2023-06-24T11:42:08;1.30;;;1.17;;
73428;SDS011;61643;49.564;17.412;2023-06-24T11:44:35;1.27;;;1.15;;
73428;SDS011;61643;49.564;17.412;2023-06-24T11:47:08;0.98;;;0.90;;
73428;SDS011;61643;49.564;17.412;2023-06-24T11:52:37;1.42;;;1.30;;
73428;SDS011;61643;49.564;17.412;2023-06-24T11:55:03;2.63;;;1.38;;
73428;SDS011;61643;49.564;17.412;2023-06-24T12:00:19;9.15;;;3.65;;
73428;SDS011;61643;49.564;17.412;2023-06-24T12:02:52;3.28;;;1.73;;
73428;SDS011;61643;49.564;17.412;2023-06-24T12:05:23;2.50;;;1.40;;
73428;SDS011;61643;49.564;17.412;2023-06-24T12:07:54;1.30;;;0.90;;
73428;SDS011;61643;49.564;17.412;2023-06-24T12:10:21;1.20;;;1.08;;
73428;SDS011;61643;49.564;17.412;2023-06-24T12:12:47;1.73;;;1.05;;
73428;SDS011;61643;49.564;17.412;2023-06-24T12:15:13;1.35;;;1.08;;
73428;SDS011;61643;49.564;17.412;2023-06-24T12:17:40;1.40;;;1.02;;
73428;SDS011;61643;49.564;17.412;2023-06-24T12:20:06;1.70;;;0.82;;
73428;SDS011;61643;49.564;17.412;2023-06-24T12:22:33;1.30;;;1.05;;
73428;SDS011;61643;49.564;17.412;2023-06-24T12:24:59;0.98;;;0.88;;
73428;SDS011;61643;49.564;17.412;2023-06-24T12:27:25;1.00;;;0.90;;
73428;SDS011;61643;49.564;17.412;2023-06-24T12:29:51;1.00;;;0.90;;
73428;SDS011;61643;49.564;17.412;2023-06-24T12:32:17;0.88;;;0.82;;
73428;SDS011;61643;49.564;17.412;2023-06-24T12:34:43;1.10;;;1.00;;
73428;SDS011;61643;49.564;17.412;2023-06-24T12:37:09;0.65;;;0.65;;
73428;SDS011;61643;49.564;17.412;2023-06-24T12:39:35;0.85;;;0.80;;
73428;SDS011;61643;49.564;17.412;2023-06-24T12:42:00;2.05;;;1.00;;
73428;SDS011;61643;49.564;17.412;2023-06-24T12:44:26;1.50;;;0.82;;
73428;SDS011;61643;49.564;17.412;2023-06-24T12:46:52;1.38;;;0.90;;
73428;SDS011;61643;49.564;17.412;2023-06-24T12:49:18;0.98;;;0.88;;
73428;SDS011;61643;49.564;17.412;2023-06-24T12:51:44;1.73;;;1.05;;
73428;SDS011;61643;49.564;17.412;2023-06-24T12:54:10;2.53;;;1.02;;
73428;SDS011;61643;49.564;17.412;2023-06-24T12:56:37;1.58;;;1.17;;
73428;SDS011;61643;49.564;17.412;2023-06-24T12:59:02;1.38;;;1.20;;
73428;SDS011;61643;49.564;17.412;2023-06-24T13:01:28;1.27;;;1.10;;
73428;SDS011;61643;49.564;17.412;2023-06-24T13:03:54;1.52;;;1.20;;
73428;SDS011;61643;49.564;17.412;2023-06-24T13:06:20;1.63;;;1.33;;
73428;SDS011;61643;49.564;17.412;2023-06-24T13:08:46;2.50;;;1.70;;
73428;SDS011;61643;49.564;17.412;2023-06-24T13:11:12;3.42;;;1.40;;
73428;SDS011;61643;49.564;17.412;2023-06-24T13:13:38;2.03;;;1.70;;
73428;SDS011;61643;49.564;17.412;2023-06-24T13:16:04;4.57;;;1.42;;
73428;SDS011;61643;49.564;17.412;2023-06-24T13:18:30;4.45;;;1.73;;
73428;SDS011;61643;49.564;17.412;2023-06-24T13:20:56;3.67;;;1.67;;
73428;SDS011;61643;49.564;17.412;2023-06-24T13:23:22;2.75;;;1.65;;
73428;SDS011;61643;49.564;17.412;2023-06-24T13:25:48;2.15;;;1.67;;
73428;SDS011;61643;49.564;17.412;2023-06-24T13:28:14;3.17;;;1.73;;
73428;SDS011;61643;49.564;17.412;2023-06-24T13:30:40;2.78;;;1.95;;
73428;SDS011;61643;49.564;17.412;2023-06-24T13:33:06;3.17;;;2.08;;
73428;SDS011;61643;49.564;17.412;2023-06-24T13:35:32;2.40;;;1.67;;
73428;SDS011;61643;49.564;17.412;2023-06-24T13:37:58;2.15;;;1.90;;
73428;SDS011;61643;49.564;17.412;2023-06-24T13:40:24;4.78;;;2.67;;
73428;SDS011;61643;49.564;17.412;2023-06-24T13:42:50;3.38;;;2.28;;
73428;SDS011;61643;49.564;17.412;2023-06-24T13:45:16;3.75;;;2.08;;
73428;SDS011;61643;49.564;17.412;2023-06-24T13:47:42;2.30;;;1.90;;
73428;SDS011;61643;49.564;17.412;2023-06-24T13:50:08;2.28;;;1.98;;
73428;SDS011;61643;49.564;17.412;2023-06-24T13:52:35;3.40;;;2.22;;
73428;SDS011;61643;49.564;17.412;2023-06-24T13:55:01;2.90;;;2.10;;
73428;SDS011;61643;49.564;17.412;2023-06-24T13:57:27;3.10;;;1.92;;
73428;SDS011;61643;49.564;17.412;2023-06-24T13:59:53;3.00;;;2.28;;
73428;SDS011;61643;49.564;17.412;2023-06-24T14:02:19;2.97;;;1.98;;
73428;SDS011;61643;49.564;17.412;2023-06-24T14:04:45;2.63;;;2.00;;
73428;SDS011;61643;49.564;17.412;2023-06-24T14:07:11;2.47;;;2.05;;
73428;SDS011;61643;49.564;17.412;2023-06-24T14:09:38;3.08;;;1.98;;
73428;SDS011;61643;49.564;17.412;2023-06-24T14:12:05;3.90;;;2.03;;
73428;SDS011;61643;49.564;17.412;2023-06-24T14:14:31;4.15;;;2.10;;
73428;SDS011;61643;49.564;17.412;2023-06-24T14:17:00;5.13;;;2.47;;
73428;SDS011;61643;49.564;17.412;2023-06-24T14:19:25;2.92;;;1.95;;
73428;SDS011;61643;49.564;17.412;2023-06-24T14:21:51;4.35;;;2.10;;
73428;SDS011;61643;49.564;17.412;2023-06-24T14:24:17;5.55;;;2.13;;
73428;SDS011;61643;49.564;17.412;2023-06-24T14:26:43;2.22;;;1.90;;
73428;SDS011;61643;49.564;17.412;2023-06-24T14:29:10;2.38;;;2.05;;
73428;SDS011;61643;49.564;17.412;2023-06-24T14:31:36;2.25;;;1.63;;
73428;SDS011;61643;49.564;17.412;2023-06-24T14:34:02;3.10;;;2.40;;
73428;SDS011;61643;49.564;17.412;2023-06-24T14:36:28;3.05;;;2.10;;
73428;SDS011;61643;49.564;17.412;2023-06-24T14:38:54;2.75;;;2.08;;
73428;SDS011;61643;49.564;17.412;2023-06-24T14:41:20;3.35;;;2.45;;
73428;SDS011;61643;49.564;17.412;2023-06-24T14:43:45;3.67;;;2.20;;
73428;SDS011;61643;49.564;17.412;2023-06-24T14:46:11;2.92;;;1.98;;
73428;SDS011;61643;49.564;17.412;2023-06-24T14:48:37;3.65;;;2.40;;
73428;SDS011;61643;49.564;17.412;2023-06-24T14:51:03;5.47;;;2.75;;
73428;SDS011;61643;49.564;17.412;2023-06-24T14:53:29;3.13;;;2.30;;
73428;SDS011;61643;49.564;17.412;2023-06-24T14:55:55;2.80;;;2.20;;
73428;SDS011;61643;49.564;17.412;2023-06-24T14:58:21;3.97;;;2.20;;
73428;SDS011;61643;49.564;17.412;2023-06-24T15:00:47;3.50;;;2.17;;
73428;SDS011;61643;49.564;17.412;2023-06-24T15:03:13;4.65;;;2.20;;
73428;SDS011;61643;49.564;17.412;2023-06-24T15:05:39;4.50;;;2.20;;
73428;SDS011;61643;49.564;17.412;2023-06-24T15:08:05;2.90;;;2.05;;
73428;SDS011;61643;49.564;17.412;2023-06-24T15:10:31;3.13;;;2.28;;
73428;SDS011;61643;49.564;17.412;2023-06-24T15:12:58;3.60;;;2.33;;
73428;SDS011;61643;49.564;17.412;2023-06-24T15:15:24;2.88;;;2.30;;